createdAt,value
2023-05-14T04:26:46.778Z,96866.66
2023-05-14T04:29:13.264Z,96873.38
2023-05-14T04:31:39.726Z,96875.00
2023-05-14T04:34:06.277Z,96871.84
2023-05-14T04:36:32.777Z,96872.16
2023-05-14T04:38:59.267Z,96872.50
2023-05-14T04:41:25.777Z,96875.47
2023-05-14T04:43:52.269Z,96875.00
2023-05-14T04:46:18.835Z,96879.25
2023-05-14T04:48:45.405Z,96882.09
2023-05-14T04:51:11.937Z,96882.91
2023-05-14T04:53:38.363Z,96875.81
2023-05-14T04:56:04.844Z,96879.72
2023-05-14T04:58:32.796Z,96881.28
2023-05-14T05:01:00.868Z,96879.91
2023-05-14T05:03:27.398Z,96878.66
2023-05-14T05:05:53.971Z,96877.81
2023-05-14T05:08:20.430Z,96887.78
2023-05-14T05:10:46.902Z,96881.78
2023-05-14T05:13:13.349Z,96891.59
2023-05-14T05:15:39.794Z,96889.22
2023-05-14T05:18:06.308Z,96891.25
2023-05-14T05:20:32.849Z,96893.63
2023-05-14T05:22:59.415Z,96892.66
2023-05-14T05:25:25.974Z,96890.63
2023-05-14T05:27:52.498Z,96888.72
2023-05-14T05:30:19.023Z,96883.84
2023-05-14T05:32:45.643Z,96896.91
2023-05-14T05:35:12.184Z,96887.16
2023-05-14T05:37:38.666Z,96893.44
2023-05-14T05:40:05.078Z,96897.84
2023-05-14T05:42:31.593Z,96894.84
2023-05-14T05:44:58.052Z,96887.44
2023-05-14T05:47:24.792Z,96890.75
2023-05-14T05:49:51.316Z,96894.22
2023-05-14T05:52:17.750Z,96896.44
2023-05-14T05:54:44.250Z,96891.03
2023-05-14T05:57:10.723Z,96896.16
2023-05-14T05:59:37.223Z,96891.41
2023-05-14T06:02:03.770Z,96893.69
2023-05-14T06:04:30.297Z,96891.09
2023-05-14T06:06:56.755Z,96902.28
2023-05-14T06:09:23.166Z,96897.53
2023-05-14T06:11:49.955Z,96894.84
2023-05-14T06:14:16.437Z,96896.38
2023-05-14T06:16:43.018Z,96895.94
2023-05-14T06:19:09.543Z,96896.38
2023-05-14T06:21:35.999Z,96892.16
2023-05-14T06:24:02.406Z,96893.13
2023-05-14T06:26:28.859Z,96895.94
2023-05-14T06:28:55.320Z,96888.94
2023-05-14T06:31:21.740Z,96890.53
2023-05-14T06:33:48.190Z,96893.91
2023-05-14T06:36:14.675Z,96897.63
2023-05-14T06:38:41.117Z,96887.66
2023-05-14T06:41:07.626Z,96890.84
2023-05-14T06:43:34.144Z,96896.22
2023-05-14T06:46:00.551Z,96894.69
2023-05-14T06:48:27.144Z,96905.41
2023-05-14T06:50:53.758Z,96904.78
2023-05-14T06:53:20.198Z,96902.53
2023-05-14T06:55:46.960Z,96905.34
2023-05-14T06:58:13.441Z,96909.16
2023-05-14T07:00:39.926Z,96904.41
2023-05-14T07:03:06.468Z,96907.41
2023-05-14T07:05:32.999Z,96903.78
2023-05-14T07:07:59.478Z,96909.44
2023-05-14T07:10:26.194Z,96910.22
2023-05-14T07:12:52.887Z,96909.75
2023-05-14T07:15:19.380Z,96907.06
2023-05-14T07:17:45.939Z,96903.44
2023-05-14T07:20:12.506Z,96899.16
2023-05-14T07:22:39.034Z,96899.34
2023-05-14T07:25:05.590Z,96895.06
2023-05-14T07:27:32.044Z,96897.72
2023-05-14T07:29:58.518Z,96891.78
2023-05-14T07:32:25.106Z,96889.53
2023-05-14T07:34:51.750Z,96884.09
2023-05-14T07:37:18.381Z,96892.38
2023-05-14T07:39:44.856Z,96884.78
2023-05-14T07:42:13.740Z,96888.28
2023-05-14T07:44:45.922Z,96887.78
2023-05-14T07:47:12.458Z,96890.94
2023-05-14T07:49:39.020Z,96882.69
2023-05-14T07:52:05.495Z,96885.09
2023-05-14T07:54:32.051Z,96888.56
2023-05-14T07:56:58.524Z,96883.06
2023-05-14T07:59:25.005Z,96883.69
2023-05-14T08:01:51.506Z,96877.38
2023-05-14T08:04:18.131Z,96873.38
2023-05-14T08:06:44.769Z,96883.31
2023-05-14T08:09:11.200Z,96883.47
2023-05-14T08:11:37.693Z,96884.38
2023-05-14T08:14:04.226Z,96880.78
2023-05-14T08:16:30.797Z,96879.81
2023-05-14T08:18:57.328Z,96881.00
2023-05-14T08:21:23.874Z,96873.44
2023-05-14T08:23:50.341Z,96870.59
2023-05-14T08:26:16.780Z,96868.41
2023-05-14T08:28:43.297Z,96865.53
2023-05-14T08:31:09.907Z,96857.09
2023-05-14T08:33:36.417Z,96858.41
2023-05-14T08:36:02.920Z,96855.84
2023-05-14T08:38:29.478Z,96856.50
2023-05-14T08:40:55.961Z,96855.06
2023-05-14T08:43:22.448Z,96850.94
2023-05-14T08:45:49.013Z,96852.31
2023-05-14T08:48:15.663Z,96853.13
2023-05-14T08:50:42.200Z,96848.03
2023-05-14T08:53:08.654Z,96841.00
2023-05-14T08:55:35.389Z,96842.53
2023-05-14T08:58:01.912Z,96845.00
2023-05-14T09:00:28.493Z,96839.56
2023-05-14T09:02:55.100Z,96845.66
2023-05-14T09:05:21.605Z,96842.56
2023-05-14T09:07:48.120Z,96845.06
2023-05-14T09:10:14.597Z,96843.28
2023-05-14T09:12:41.032Z,96834.19
2023-05-14T09:15:07.556Z,96837.47
2023-05-14T09:17:34.121Z,96834.66
2023-05-14T09:20:00.671Z,96837.66
2023-05-14T09:22:27.169Z,96839.94
2023-05-14T09:24:53.667Z,96838.06
2023-05-14T09:27:20.120Z,96831.81
2023-05-14T09:29:46.614Z,96832.19
2023-05-14T09:32:13.074Z,96821.97
2023-05-14T09:34:39.655Z,96831.81
2023-05-14T09:37:06.179Z,96831.97
2023-05-14T09:39:32.670Z,96829.09
2023-05-14T09:41:59.150Z,96821.50
2023-05-14T09:44:25.677Z,96826.41
2023-05-14T09:46:52.200Z,96824.50
2023-05-14T09:49:18.773Z,96824.91
2023-05-14T09:51:45.263Z,96822.63
2023-05-14T09:54:11.748Z,96826.88
2023-05-14T09:56:38.232Z,96815.72
2023-05-14T09:59:04.755Z,96809.84
2023-05-14T10:01:31.226Z,96810.81
2023-05-14T10:03:57.776Z,96806.31
2023-05-14T10:06:24.288Z,96814.09
2023-05-14T10:08:50.747Z,96809.72
2023-05-14T10:11:17.160Z,96807.69
2023-05-14T10:13:43.682Z,96803.56
2023-05-14T10:16:10.162Z,96806.56
2023-05-14T10:18:36.693Z,96813.72
2023-05-14T10:21:03.317Z,96809.94
2023-05-14T10:23:29.839Z,96807.34
2023-05-14T10:25:56.331Z,96806.47
2023-05-14T10:28:22.875Z,96806.47
2023-05-14T10:30:49.475Z,96800.09
2023-05-14T10:33:15.991Z,96806.47
2023-05-14T10:35:42.455Z,96803.97
2023-05-14T10:38:08.921Z,96800.88
2023-05-14T10:40:35.416Z,96799.22
2023-05-14T10:43:01.870Z,96797.50
2023-05-14T10:45:28.302Z,96797.13
2023-05-14T10:47:54.894Z,96799.47
2023-05-14T10:50:21.329Z,96790.00
2023-05-14T10:52:47.839Z,96780.94
2023-05-14T10:55:14.325Z,96793.03
2023-05-14T10:57:40.882Z,96792.44
2023-05-14T11:00:07.483Z,96796.25
2023-05-14T11:02:34.180Z,96793.25
2023-05-14T11:05:00.830Z,96797.63
2023-05-14T11:07:27.367Z,96797.94
2023-05-14T11:09:53.866Z,96789.88
2023-05-14T11:12:20.470Z,96795.00
2023-05-14T11:14:46.985Z,96785.72
2023-05-14T11:17:13.484Z,96788.53
2023-05-14T11:19:40.066Z,96789.38
2023-05-14T11:22:06.539Z,96778.59
2023-05-14T11:24:33.062Z,96774.66
2023-05-14T11:26:59.643Z,96779.13
2023-05-14T11:29:26.150Z,96773.75
2023-05-14T11:31:52.667Z,96775.53
2023-05-14T11:34:19.178Z,96777.31
2023-05-14T11:36:45.709Z,96773.75
2023-05-14T11:39:12.249Z,96768.88
2023-05-14T11:41:38.812Z,96767.81
2023-05-14T11:44:06.341Z,96768.38
2023-05-14T11:46:33.798Z,96763.69
2023-05-14T11:49:00.318Z,96764.09
2023-05-14T11:51:26.818Z,96763.66
2023-05-14T11:53:53.338Z,96754.31
2023-05-14T11:56:19.885Z,96761.09
2023-05-14T11:58:46.415Z,96759.53
2023-05-14T12:01:12.955Z,96758.59
2023-05-14T12:03:39.479Z,96754.47
2023-05-14T12:06:06.010Z,96756.47
2023-05-14T12:08:32.431Z,96751.75
2023-05-14T12:10:58.984Z,96749.81
2023-05-14T12:13:25.457Z,96747.69
2023-05-14T12:15:51.901Z,96745.59
2023-05-14T12:18:24.489Z,96748.94
2023-05-14T12:20:51.550Z,96741.88
2023-05-14T12:23:18.011Z,96745.22
2023-05-14T12:25:44.465Z,96749.41
2023-05-14T12:28:11.137Z,96755.72
2023-05-14T12:30:37.636Z,96742.81
2023-05-14T12:33:04.146Z,96738.38
2023-05-14T12:35:30.663Z,96735.81
2023-05-14T12:37:57.168Z,96738.06
2023-05-14T12:40:23.879Z,96742.09
2023-05-14T12:42:50.590Z,96743.78
2023-05-14T12:45:17.030Z,96742.53
2023-05-14T12:47:43.518Z,96730.22
2023-05-14T12:50:10.116Z,96729.09
2023-05-14T12:52:39.217Z,96728.31
2023-05-14T12:55:06.497Z,96729.00
2023-05-14T12:57:32.899Z,96727.66
2023-05-14T12:59:59.294Z,96727.00
2023-05-14T13:02:25.770Z,96735.59
2023-05-14T13:04:55.428Z,96729.00
2023-05-14T13:07:21.924Z,96710.63
2023-05-14T13:09:48.425Z,96718.72
2023-05-14T13:12:14.987Z,96718.47
2023-05-14T13:14:41.426Z,96709.31
2023-05-14T13:17:08.148Z,96710.88
2023-05-14T13:19:34.723Z,96703.03
2023-05-14T13:22:01.336Z,96706.84
2023-05-14T13:24:27.756Z,96697.22
2023-05-14T13:26:54.266Z,96706.16
2023-05-14T13:29:20.783Z,96705.97
2023-05-14T13:31:47.253Z,96702.34
2023-05-14T13:34:13.691Z,96692.97
2023-05-14T13:36:40.203Z,96694.63
2023-05-14T13:39:06.761Z,96692.63
2023-05-14T13:41:33.301Z,96689.38
2023-05-14T13:43:59.797Z,96692.94
2023-05-14T13:46:26.342Z,96689.69
2023-05-14T13:48:52.869Z,96689.81
2023-05-14T13:51:19.391Z,96688.22
2023-05-14T13:53:45.881Z,96687.31
2023-05-14T13:56:12.393Z,96674.13
2023-05-14T13:58:38.901Z,96674.66
2023-05-14T14:01:05.394Z,96669.78
2023-05-14T14:03:31.952Z,96685.00
2023-05-14T14:05:58.427Z,96679.09
2023-05-14T14:08:25.006Z,96687.13
2023-05-14T14:10:51.506Z,96682.84
2023-05-14T14:13:17.944Z,96678.81
2023-05-14T14:15:44.646Z,96681.16
2023-05-14T14:18:11.150Z,96681.63
2023-05-14T14:20:37.594Z,96679.59
2023-05-14T14:23:04.126Z,96677.28
2023-05-14T14:25:30.619Z,96676.41
2023-05-14T14:27:57.089Z,96664.41
2023-05-14T14:30:23.548Z,96661.91
2023-05-14T14:32:50.072Z,96667.06
2023-05-14T14:35:16.629Z,96681.19
2023-05-14T14:37:43.057Z,96685.22
2023-05-14T14:40:09.687Z,96679.63
2023-05-14T14:42:38.923Z,96676.69
2023-05-14T14:45:05.491Z,96675.81
2023-05-14T14:47:32.134Z,96678.16
2023-05-14T14:49:58.807Z,96660.03
2023-05-14T14:52:25.349Z,96668.56
2023-05-14T14:54:51.910Z,96669.75
2023-05-14T14:57:18.497Z,96673.38
2023-05-14T14:59:45.019Z,96666.59
2023-05-14T15:02:11.548Z,96672.09
2023-05-14T15:04:38.075Z,96674.34
2023-05-14T15:07:04.586Z,96670.88
2023-05-14T15:09:31.055Z,96667.44
2023-05-14T15:11:57.641Z,96659.16
2023-05-14T15:14:24.074Z,96655.72
2023-05-14T15:16:51.133Z,96656.44
2023-05-14T15:19:17.802Z,96660.50
2023-05-14T15:21:44.345Z,96653.88
2023-05-14T15:24:10.864Z,96657.25
2023-05-14T15:26:37.303Z,96662.63
2023-05-14T15:29:03.872Z,96651.72
2023-05-14T15:31:30.416Z,96658.00
2023-05-14T15:33:56.932Z,96662.72
2023-05-14T15:36:23.582Z,96675.09
2023-05-14T15:38:50.062Z,96663.97
2023-05-14T15:41:16.637Z,96677.94
2023-05-14T15:43:43.188Z,96676.09
2023-05-14T15:46:09.652Z,96671.13
2023-05-14T15:48:37.290Z,96660.22
2023-05-14T15:51:03.792Z,96657.25
2023-05-14T15:53:30.360Z,96658.97
2023-05-14T15:55:56.839Z,96669.03
2023-05-14T15:58:23.345Z,96656.63
2023-05-14T16:00:49.789Z,96625.94
2023-05-14T16:03:16.357Z,96628.00
2023-05-14T16:05:42.857Z,96628.47
2023-05-14T16:08:09.295Z,96623.94
2023-05-14T16:10:35.834Z,96620.47
2023-05-14T16:13:02.402Z,96658.81
2023-05-14T16:15:28.843Z,96651.56
2023-05-14T16:17:55.378Z,96654.75
2023-05-14T16:20:22.076Z,96650.72
2023-05-14T16:22:48.644Z,96657.25
2023-05-14T16:25:15.076Z,96656.59
2023-05-14T16:27:41.693Z,96655.69
2023-05-14T16:30:08.208Z,96651.88
2023-05-14T16:32:34.749Z,96654.66
2023-05-14T16:37:46.141Z,96655.31
2023-05-14T16:40:12.661Z,96668.38
2023-05-14T16:42:39.111Z,96679.25
2023-05-14T16:45:05.847Z,96682.94
2023-05-14T16:47:32.347Z,96690.34
2023-05-14T16:49:58.887Z,96699.38
2023-05-14T16:52:25.371Z,96705.00
2023-05-14T16:54:51.899Z,96695.63
2023-05-14T16:57:18.387Z,96700.13
2023-05-14T16:59:44.825Z,96700.06
2023-05-14T17:02:11.285Z,96697.41
2023-05-14T17:04:37.777Z,96697.25
2023-05-14T17:07:04.299Z,96697.44
2023-05-14T17:09:31.245Z,96703.41
2023-05-14T17:11:57.779Z,96703.22
2023-05-14T17:14:24.245Z,96718.84
2023-05-14T17:16:50.683Z,96714.56
2023-05-14T17:19:17.430Z,96719.88
2023-05-14T17:21:43.977Z,96724.66
2023-05-14T17:24:10.469Z,96730.44
2023-05-14T17:26:36.968Z,96731.66
2023-05-14T17:29:03.397Z,96732.47
2023-05-14T17:31:29.916Z,96739.28
2023-05-14T17:33:56.470Z,96735.88
2023-05-14T17:36:22.975Z,96746.69
2023-05-14T17:38:49.509Z,96752.56
2023-05-14T17:41:15.990Z,96747.88
2023-05-14T17:43:42.446Z,96750.69
2023-05-14T17:46:08.956Z,96748.69
2023-05-14T17:48:35.459Z,96748.38
2023-05-14T17:51:01.960Z,96741.53
2023-05-14T17:53:28.500Z,96747.94
2023-05-14T17:55:54.929Z,96741.00
2023-05-14T17:58:21.447Z,96753.09
2023-05-14T18:00:47.945Z,96749.53
2023-05-14T18:03:14.594Z,96751.97
2023-05-14T18:05:41.058Z,96753.97
2023-05-14T18:08:07.525Z,96758.13
2023-05-14T18:10:34.027Z,96755.88
2023-05-14T18:13:00.719Z,96759.44
2023-05-14T18:15:27.228Z,96761.59
2023-05-14T18:17:53.778Z,96766.19
2023-05-14T18:20:20.431Z,96770.78
2023-05-14T18:22:46.956Z,96778.38
2023-05-14T18:25:13.411Z,96776.81
2023-05-14T18:27:39.857Z,96779.38
2023-05-14T18:30:06.329Z,96793.06
2023-05-14T18:32:32.828Z,96810.38
2023-05-14T18:34:59.346Z,96802.66
2023-05-14T18:37:25.843Z,96816.41
2023-05-14T18:39:52.305Z,96811.50
2023-05-14T18:42:18.933Z,96811.84
2023-05-14T18:44:45.466Z,96826.91
2023-05-14T18:47:11.965Z,96826.50
2023-05-14T18:49:38.460Z,96832.28
2023-05-14T18:52:04.961Z,96836.44
2023-05-14T18:54:31.383Z,96845.63
2023-05-14T18:56:57.877Z,96839.09
2023-05-14T18:59:24.450Z,96835.84
2023-05-14T19:01:50.943Z,96829.16
2023-05-14T19:32:44.704Z,96878.63
2023-05-14T19:35:11.176Z,96873.09
2023-05-14T19:37:37.609Z,96871.69
2023-05-14T19:40:04.137Z,96870.47
2023-05-14T19:42:30.683Z,96876.94
2023-05-14T19:44:57.172Z,96884.72
2023-05-14T19:47:23.635Z,96890.53
2023-05-14T19:49:50.174Z,96897.38
2023-05-14T19:52:19.636Z,96907.25
2023-05-14T19:54:46.145Z,96903.41
2023-05-14T19:57:12.682Z,96908.09
2023-05-14T19:59:39.129Z,96907.31
2023-05-14T20:02:05.754Z,96909.53
2023-05-14T20:04:32.286Z,96907.19
2023-05-14T20:06:58.819Z,96915.09
2023-05-14T20:09:25.258Z,96921.88
2023-05-14T20:11:52.624Z,96920.63
2023-05-14T20:14:20.592Z,96917.19
2023-05-14T20:16:47.397Z,96924.91
2023-05-14T20:19:14.027Z,96920.47
2023-05-14T20:21:40.513Z,96916.22
2023-05-14T20:24:07.051Z,96925.22
2023-05-14T20:26:33.586Z,96914.34
2023-05-14T20:29:00.178Z,96916.53
2023-05-14T20:31:26.733Z,96913.34
2023-05-14T20:33:53.206Z,96907.84
2023-05-14T20:36:19.705Z,96900.28
2023-05-14T20:38:46.142Z,96900.81
2023-05-14T20:41:12.647Z,96899.19
2023-05-14T20:43:39.172Z,96899.31
2023-05-14T20:46:05.682Z,96899.97
2023-05-14T20:48:32.241Z,96901.53
